.
WxDataArchive / Data Records for 2006-09-21
2006-09-20 September 2006 2006-09-22

Data Records for Thursday, 21 September 2006

Time	Temp	Chill	HIndex	Humid	Dewpt	 Wind 	HiWind	WindDir	Rain 	Barom 
-----	----	-----	------	-----	-----	------	------	-------	-----	----- 
00:00	42.2	42.2	42.2	93	40.3	0	0	---	0.00	30.030 
00:05	42.1	42.1	42.1	93	40.2	0	0	---	0.00	30.030 
00:10	41.9	41.9	41.9	93	40.0	0	0	---	0.00	30.030 
00:15	41.8	41.8	41.8	93	39.9	0	0	---	0.00	30.028 
00:20	41.8	41.8	41.8	93	39.9	0	0	---	0.00	30.028 
00:25	41.6	41.6	41.6	93	39.7	0	0	---	0.00	30.028 
00:30	41.5	41.5	41.5	93	39.6	0	0	---	0.00	30.028 
00:35	41.5	41.5	41.5	93	39.6	0	0	---	0.00	30.028 
00:40	41.3	41.3	41.3	94	39.7	0	0	---	0.00	30.028 
00:45	41.2	41.2	41.2	94	39.6	0	0	---	0.00	30.029 
00:50	41.1	41.1	41.1	94	39.5	0	0	---	0.00	30.029 
00:55	41.1	41.1	41.1	94	39.5	0	0	---	0.00	30.029 
01:00	40.9	40.9	40.9	94	39.3	0	0	---	0.00	30.031 
01:05	40.8	40.8	40.8	94	39.2	0	0	---	0.00	30.031 
01:10	40.8	40.8	40.8	94	39.2	0	0	---	0.00	30.031 
01:15	40.6	40.6	40.6	94	39.0	0	0	---	0.00	30.036 
01:20	40.6	40.6	40.6	94	39.0	0	0	---	0.00	30.036 
01:25	40.5	40.5	40.5	94	38.9	0	0	---	0.00	30.036 
01:30	40.3	40.3	40.3	94	38.7	0	0	---	0.00	30.036 
01:35	40.3	40.3	40.3	94	38.7	0	0	---	0.00	30.036 
01:40	40.2	40.2	40.2	94	38.6	0	0	---	0.00	30.036 
01:45	40.1	40.1	40.1	94	38.5	0	0	---	0.00	30.038 
01:50	39.9	39.9	39.9	94	38.3	0	0	---	0.00	30.038 
01:55	39.9	39.9	39.9	94	38.3	0	0	---	0.00	30.038 
02:00	39.8	39.8	39.8	94	38.2	0	0	---	0.00	30.040 
02:05	39.6	39.6	39.6	94	38.0	0	0	---	0.00	30.040 
02:10	39.5	39.5	39.5	94	37.9	0	0	---	0.00	30.040 
02:15	39.5	39.5	39.5	94	37.9	0	0	---	0.00	30.044 
02:20	39.3	39.3	39.3	94	37.7	0	0	---	0.00	30.044 
02:25	39.3	39.3	39.3	94	37.7	0	0	---	0.00	30.044 
02:30	39.3	39.3	39.3	94	37.7	0	0	---	0.00	30.043 
02:35	39.2	39.2	39.2	94	37.6	0	0	---	0.00	30.043 
02:40	39.2	39.2	39.2	95	37.9	0	0	---	0.00	30.043 
02:45	39.1	39.1	39.1	95	37.8	0	0	---	0.00	30.041 
02:50	39.1	39.1	39.1	95	37.8	0	0	---	0.00	30.041 
02:55	38.9	38.9	38.9	95	37.6	0	0	---	0.00	30.041 
03:00	38.9	38.9	38.9	95	37.6	0	0	---	0.00	30.041 
03:05	38.8	38.8	38.8	95	37.5	0	0	---	0.00	30.041 
03:10	38.8	38.8	38.8	95	37.5	0	0	---	0.00	30.041 
03:15	38.8	38.8	38.8	95	37.5	0	0	---	0.00	30.042 
03:20	38.6	38.6	38.6	95	37.3	0	0	---	0.00	30.042 
03:25	38.6	38.6	38.6	95	37.3	0	0	---	0.00	30.042 
03:30	38.5	38.5	38.5	95	37.2	0	0	---	0.00	30.046 
03:35	38.6	38.6	38.6	95	37.3	0	0	---	0.00	30.046 
03:40	38.5	38.5	38.5	95	37.2	0	0	---	0.00	30.046 
03:45	38.5	38.5	38.5	95	37.2	0	0	---	0.00	30.045 
03:50	38.5	38.5	38.5	95	37.2	0	0	---	0.00	30.045 
03:55	38.5	38.5	38.5	95	37.2	0	0	---	0.00	30.045 
04:00	38.3	38.3	38.3	95	37.0	0	0	---	0.00	30.045 
04:05	38.3	38.3	38.3	95	37.0	0	0	---	0.00	30.045 
04:10	38.3	38.3	38.3	95	37.0	0	0	---	0.00	30.045 
04:15	38.2	38.2	38.2	95	36.9	0	0	---	0.00	30.044 
04:20	38.2	38.2	38.2	95	36.9	0	0	---	0.00	30.044 
04:25	38.2	38.2	38.2	95	36.9	0	0	---	0.00	30.044 
04:30	38.0	38.0	38.0	96	37.0	0	0	---	0.00	30.044 
04:35	38.0	38.0	38.0	96	37.0	0	0	---	0.00	30.044 
04:40	37.9	37.9	37.9	96	36.9	0	0	---	0.00	30.044 
04:45	37.9	37.9	37.9	96	36.9	0	0	---	0.00	30.044 
04:50	37.8	37.8	37.8	96	36.8	0	0	---	0.00	30.044 
04:55	37.8	37.8	37.8	96	36.8	0	0	---	0.00	30.044 
05:00	37.8	37.8	37.8	96	36.8	0	0	---	0.00	30.045 
05:05	37.8	37.8	37.8	96	36.8	0	0	---	0.00	30.045 
05:10	37.8	37.8	37.8	96	36.8	0	0	---	0.00	30.045 
05:15	37.6	37.6	37.6	96	36.6	0	0	---	0.00	30.046 
05:20	37.6	37.6	37.6	96	36.6	0	0	---	0.00	30.046 
05:25	37.6	37.6	37.6	96	36.6	0	0	---	0.00	30.046 
05:30	37.6	37.6	37.6	96	36.6	0	0	---	0.00	30.044 
05:35	37.6	37.6	37.6	96	36.6	0	0	---	0.00	30.044 
05:40	37.6	37.6	37.6	96	36.6	0	0	---	0.00	30.044 
05:45	37.5	37.5	37.5	96	36.5	0	0	---	0.00	30.043 
05:50	37.5	37.5	37.5	96	36.5	0	0	---	0.00	30.043 
05:55	37.3	37.3	37.3	96	36.3	0	0	---	0.00	30.043 
06:00	37.3	37.3	37.3	96	36.3	0	0	---	0.00	30.047 
06:05	37.3	37.3	37.3	96	36.3	0	0	---	0.00	30.047 
06:10	37.2	37.2	37.2	96	36.2	0	0	---	0.00	30.047 
06:15	37.2	37.2	37.2	96	36.2	0	0	---	0.00	30.048 
06:20	37.2	37.2	37.2	96	36.2	0	0	---	0.00	30.048 
06:25	37.0	37.0	37.0	96	36.0	0	0	---	0.00	30.048 
06:30	37.0	37.0	37.0	96	36.0	0	0	---	0.00	30.044 
06:35	36.9	36.9	36.9	96	35.9	0	0	---	0.00	30.044 
06:40	36.9	36.9	36.9	96	35.9	0	0	---	0.00	30.044 
06:45	36.9	36.9	36.9	96	35.9	0	0	---	0.00	30.045 
06:50	36.9	36.9	36.9	96	35.9	0	0	---	0.00	30.045 
06:55	37.0	37.0	37.0	96	36.0	0	0	---	0.00	30.045 
07:00	37.0	37.0	37.0	96	36.0	0	0	---	0.00	30.050 
07:05	37.0	37.0	37.0	96	36.0	0	0	---	0.00	30.050 
07:10	36.9	36.9	36.9	96	35.9	0	0	---	0.00	30.050 
07:15	36.9	36.9	36.9	96	35.9	0	0	---	0.00	30.052 
07:20	36.9	36.9	36.9	96	35.9	0	0	---	0.00	30.052 
07:25	36.8	36.8	36.8	96	35.8	0	0	---	0.00	30.052 
07:30	36.8	36.8	36.8	96	35.8	0	0	---	0.00	30.052 
07:35	36.8	36.8	36.8	96	35.8	0	0	---	0.00	30.052 
07:40	36.8	36.8	36.8	96	35.8	0	0	---	0.00	30.052 
07:45	36.8	36.8	36.8	96	35.8	0	0	---	0.00	30.056 
07:50	36.8	36.8	36.8	96	35.8	0	0	---	0.00	30.056 
07:55	36.9	36.9	36.9	96	35.9	0	0	---	0.00	30.056 
08:00	37.0	37.0	37.0	96	36.0	0	0	---	0.00	30.062 
08:05	37.3	37.3	37.3	96	36.3	0	0	---	0.00	30.062 
08:10	37.8	37.8	37.8	96	36.8	0	0	---	0.00	30.062 
08:15	38.6	38.6	38.6	97	37.8	0	0	---	0.00	30.068 
08:20	39.3	39.3	39.3	97	38.5	0	0	---	0.00	30.068 
08:25	40.2	40.2	40.2	97	39.4	0	0	---	0.00	30.068 
08:30	41.1	41.1	41.1	97	40.3	0	0	---	0.00	30.068 
08:35	41.6	41.6	41.6	97	40.8	0	0	---	0.00	30.068 
08:40	42.1	42.1	42.1	97	41.3	0	0	---	0.00	30.068 
08:45	42.5	42.5	42.5	97	41.7	0	0	---	0.00	30.070 
08:50	42.8	42.8	42.8	97	42.0	0	0	---	0.00	30.070 
08:55	43.2	43.2	43.2	97	42.4	0	1	315	0.00	30.070 
09:00	43.6	43.6	43.6	97	42.8	0	1	315	0.00	30.075 
09:05	43.9	43.9	43.9	97	43.1	0	1	315	0.00	30.075 
09:10	44.3	44.3	44.3	97	43.5	0	1	315	0.00	30.075 
09:15	44.8	44.8	44.8	97	44.0	0	1	315	0.00	30.076 
09:20	45.4	45.4	45.4	97	44.6	0	2	315	0.00	30.076 
09:25	45.8	45.8	45.8	96	44.7	0	2	315	0.00	30.076 
09:30	46.4	46.4	46.4	95	45.0	0	2	0	0.00	30.073 
09:35	47.0	47.0	47.0	92	44.8	0	2	0	0.00	30.073 
09:40	47.7	47.7	47.7	87	44.0	1	2	22	0.00	30.073 
09:45	48.9	48.9	48.9	85	44.6	0	3	22	0.00	30.072 
09:50	50.2	50.2	50.2	80	44.3	1	2	45	0.00	30.072 
09:55	51.7	51.7	51.7	77	44.7	0	3	45	0.00	30.072 
10:00	52.8	52.8	52.8	75	45.1	0	2	45	0.00	30.074 
10:05	53.9	53.9	53.9	71	44.7	1	2	45	0.00	30.074 
10:10	54.7	54.7	54.7	68	44.3	1	2	45	0.00	30.074 
10:15	55.4	55.4	55.4	69	45.4	1	3	45	0.00	30.076 
10:20	56.2	56.2	56.2	66	45.0	0	2	90	0.00	30.076 
10:25	56.9	56.9	56.9	66	45.7	1	2	90	0.00	30.076 
10:30	57.5	57.5	57.5	64	45.4	0	2	90	0.00	30.076 
10:35	58.0	58.0	58.0	63	45.5	1	3	90	0.00	30.076 
10:40	58.1	58.1	58.1	62	45.1	0	2	338	0.00	30.076 
10:45	58.4	58.4	58.4	61	45.0	1	3	270	0.00	30.078 
10:50	58.9	58.9	58.9	65	47.2	0	2	270	0.00	30.078 
10:55	59.3	59.3	59.3	59	45.0	1	2	248	0.00	30.078 
11:00	59.6	59.6	59.6	59	45.3	0	3	248	0.00	30.079 
11:05	60.1	60.1	60.1	55	43.9	1	2	248	0.00	30.079 
11:10	60.4	60.4	60.4	57	45.1	1	3	248	0.00	30.079 
11:15	60.5	60.5	60.5	56	44.7	1	4	248	0.00	30.080 
11:20	61.0	61.0	61.0	60	47.0	1	5	248	0.00	30.080 
11:25	61.3	61.3	61.3	56	45.5	1	5	135	0.00	30.080 
11:30	61.3	61.3	61.3	51	43.0	1	3	225	0.00	30.075 
11:35	61.6	61.6	61.6	52	43.8	0	2	270	0.00	30.075 
11:40	62.0	62.0	62.0	53	44.7	1	4	158	0.00	30.075 
11:45	62.3	62.3	62.3	53	44.9	1	3	135	0.00	30.072 
11:50	62.4	62.4	62.4	51	44.0	1	4	248	0.00	30.072 
11:55	62.1	62.1	62.1	49	42.7	1	4	248	0.00	30.072 
12:00	62.3	62.3	62.3	56	46.4	1	3	248	0.00	30.071 
12:05	62.3	62.3	62.3	50	43.4	2	4	248	0.00	30.071 
12:10	62.6	62.6	62.6	49	43.2	1	4	112	0.00	30.071 
12:15	63.1	63.1	63.1	49	43.6	1	2	90	0.00	30.066 
12:20	63.2	63.2	63.2	50	44.2	2	6	90	0.00	30.066 
12:25	63.4	63.4	63.4	47	42.8	1	5	90	0.00	30.066 
12:30	63.7	63.7	63.7	48	43.6	0	3	90	0.00	30.057 
12:35	64.0	64.0	64.0	45	42.2	1	3	270	0.00	30.057 
12:40	64.0	64.0	64.0	43	41.1	1	3	202	0.00	30.057 
12:45	64.2	64.2	64.2	50	45.2	1	3	180	0.00	30.055 
12:50	63.9	63.9	63.9	44	41.6	2	4	248	0.00	30.055 
12:55	64.0	64.0	64.0	49	44.5	1	3	248	0.00	30.055 
13:00	64.0	64.0	64.0	46	42.8	2	4	248	0.00	30.053 
13:05	63.9	63.9	63.9	46	42.7	2	4	90	0.00	30.053 
13:10	64.2	64.2	64.2	50	45.2	1	3	90	0.00	30.053 
13:15	64.3	64.3	64.3	47	43.6	0	2	90	0.00	30.041 
13:20	64.5	64.5	64.5	49	44.9	1	3	90	0.00	30.041 
13:25	64.3	64.3	64.3	48	44.2	1	4	248	0.00	30.041 
13:30	64.3	64.3	64.3	47	43.6	2	4	248	0.00	30.041 
13:35	64.5	64.5	64.5	48	44.4	1	3	248	0.00	30.041 
13:40	64.8	64.8	64.8	44	42.4	2	5	248	0.00	30.041 
13:45	64.8	64.8	64.8	45	43.0	2	4	112	0.00	30.032 
13:50	64.7	64.7	64.7	45	42.9	1	5	112	0.00	30.032 
13:55	65.2	65.2	65.2	48	45.0	1	4	112	0.00	30.032 
14:00	64.8	64.8	64.8	43	41.8	2	5	270	0.00	30.025 
14:05	64.8	64.8	64.8	43	41.8	1	4	248	0.00	30.025 
14:10	65.3	65.3	65.3	47	44.5	1	3	292	0.00	30.025 
14:15	65.8	65.8	65.8	42	42.1	2	7	90	0.00	30.019 
14:20	65.8	65.8	65.8	43	42.7	1	3	270	0.00	30.019 
14:25	66.0	66.0	66.0	45	44.0	0	2	248	0.00	30.019 
14:30	65.8	65.8	65.8	42	42.1	2	4	270	0.00	30.014 
14:35	65.8	65.8	65.8	46	44.4	1	4	68	0.00	30.014 
14:40	66.1	66.1	66.1	45	44.1	1	3	68	0.00	30.014 
14:45	66.4	66.4	66.4	40	41.3	2	4	248	0.00	30.009 
14:50	66.6	66.6	66.6	45	44.6	0	3	248	0.00	30.009 
14:55	66.6	66.6	66.6	45	44.6	1	4	248	0.00	30.009 
15:00	66.4	66.4	66.4	42	42.6	2	4	90	0.00	30.007 
15:05	66.4	66.4	66.4	42	42.6	1	4	248	0.00	30.007 
15:10	66.3	66.3	66.3	46	44.9	1	2	112	0.00	30.007 
15:15	66.3	66.3	66.3	40	41.2	1	3	112	0.00	29.996 
15:20	66.1	66.1	66.1	45	44.1	2	4	112	0.00	29.996 
15:25	66.4	66.4	66.4	43	43.2	1	5	135	0.00	29.996 
15:30	66.1	66.1	66.1	41	41.7	2	6	68	0.00	29.993 
15:35	66.0	66.0	66.0	39	40.3	2	4	90	0.00	29.993 
15:40	66.3	66.3	66.3	45	44.3	1	7	90	0.00	29.993 
15:45	66.6	66.6	66.6	41	42.2	1	5	270	0.00	29.990 
15:50	66.9	66.9	66.9	39	41.1	1	3	270	0.00	29.990 
15:55	67.1	67.1	67.1	43	43.8	1	3	248	0.00	29.990 
16:00	67.1	67.1	67.1	38	40.6	1	4	90	0.00	29.982 
16:05	67.1	67.1	67.1	38	40.6	1	3	90	0.00	29.982 
16:10	67.1	67.1	67.1	37	40.0	0	2	0	0.00	29.982 
16:15	66.9	66.9	66.9	39	41.1	2	5	90	0.00	29.976 
16:20	66.8	66.8	66.8	38	40.4	1	3	90	0.00	29.976 
16:25	66.6	66.6	66.6	42	42.8	2	4	90	0.00	29.976 
16:30	66.8	66.8	66.8	39	41.0	1	2	90	0.00	29.974 
16:35	66.9	66.9	66.9	41	42.4	1	3	90	0.00	29.974 
16:40	67.1	67.1	67.1	42	43.2	1	4	270	0.00	29.974 
16:45	66.9	66.9	66.9	39	41.1	2	5	112	0.00	29.972 
16:50	66.9	66.9	66.9	42	43.1	1	4	90	0.00	29.972 
16:55	66.8	66.8	66.8	40	41.7	2	6	90	0.00	29.972 
17:00	66.3	66.3	66.3	37	39.2	2	4	112	0.00	29.965 
17:05	66.3	66.3	66.3	39	40.6	2	4	90	0.00	29.965 
17:10	66.3	66.3	66.3	39	40.6	1	5	112	0.00	29.965 
17:15	66.3	66.3	66.3	39	40.6	1	5	90	0.00	29.971 
17:20	66.3	66.3	66.3	38	39.9	1	3	90	0.00	29.971 
17:25	66.3	66.3	66.3	38	39.9	1	3	112	0.00	29.971 
17:30	66.4	66.4	66.4	42	42.6	1	3	112	0.00	29.974 
17:35	66.4	66.4	66.4	43	43.2	0	3	248	0.00	29.974 
17:40	66.3	66.3	66.3	41	41.9	1	4	90	0.00	29.974 
17:45	66.1	66.1	66.1	39	40.4	1	4	90	0.00	29.971 
17:50	66.1	66.1	66.1	39	40.4	1	4	112	0.00	29.971 
17:55	66.1	66.1	66.1	38	39.7	1	3	90	0.00	29.971 
18:00	66.1	66.1	66.1	41	41.7	1	6	112	0.00	29.965 
18:05	66.0	66.0	66.0	41	41.6	2	6	90	0.00	29.965 
18:10	66.0	66.0	66.0	42	42.2	1	4	112	0.00	29.965 
18:15	65.8	65.8	65.8	42	42.1	1	3	112	0.00	29.965 
18:20	65.5	65.5	65.5	42	41.8	1	4	90	0.00	29.965 
18:25	65.3	65.3	65.3	41	41.0	1	3	90	0.00	29.965 
18:30	65.2	65.2	65.2	44	42.7	1	4	90	0.00	29.963 
18:35	65.0	65.0	65.0	42	41.3	1	3	90	0.00	29.963 
18:40	64.8	64.8	64.8	43	41.8	1	2	112	0.00	29.963 
18:45	64.5	64.5	64.5	43	41.5	1	3	112	0.00	29.962 
18:50	64.2	64.2	64.2	44	41.8	1	3	112	0.00	29.962 
18:55	63.9	63.9	63.9	45	42.1	1	5	112	0.00	29.962 
19:00	63.5	63.5	63.5	45	41.8	1	3	112	0.00	29.959 
19:05	63.2	63.2	63.2	46	42.1	1	2	112	0.00	29.959 
19:10	62.7	62.7	62.7	46	41.6	1	3	112	0.00	29.959 
19:15	62.6	62.6	62.6	47	42.1	0	2	112	0.00	29.955 
19:20	62.3	62.3	62.3	47	41.8	0	1	112	0.00	29.955 
19:25	62.0	62.0	62.0	48	42.1	1	3	90	0.00	29.955 
19:30	61.6	61.6	61.6	49	42.3	0	1	90	0.00	29.960 
19:35	61.3	61.3	61.3	50	42.5	0	1	90	0.00	29.960 
19:40	61.0	61.0	61.0	51	42.7	0	1	90	0.00	29.960 
19:45	60.5	60.5	60.5	52	42.8	0	1	90	0.00	29.964 
19:50	60.2	60.2	60.2	53	43.0	0	0	---	0.00	29.964 
19:55	59.9	59.9	59.9	54	43.2	0	0	---	0.00	29.964 
20:00	59.5	59.5	59.5	55	43.3	0	0	---	0.00	29.956 
20:05	59.2	59.2	59.2	56	43.5	0	1	90	0.00	29.956 
20:10	58.7	58.7	58.7	57	43.5	0	0	---	0.00	29.956 
20:15	58.4	58.4	58.4	58	43.7	0	0	---	0.00	29.951 
20:20	58.1	58.1	58.1	58	43.4	0	0	---	0.00	29.951 
20:25	57.8	57.8	57.8	58	43.1	0	0	---	0.00	29.951 
20:30	57.5	57.5	57.5	59	43.3	0	0	---	0.00	29.964 
20:35	57.3	57.3	57.3	60	43.5	0	0	---	0.00	29.964 
20:40	57.2	57.2	57.2	62	44.3	0	0	---	0.00	29.964 
20:45	57.0	57.0	57.0	62	44.1	0	0	---	0.00	29.965 
20:50	56.7	56.7	56.7	62	43.8	0	0	---	0.00	29.965 
20:55	56.6	56.6	56.6	62	43.7	0	1	90	0.00	29.965 
21:00	56.5	56.5	56.5	62	43.6	0	0	---	0.00	29.966 
21:05	56.2	56.2	56.2	63	43.8	0	0	---	0.00	29.966 
21:10	56.0	56.0	56.0	65	44.4	0	0	---	0.00	29.966 
21:15	55.9	55.9	55.9	64	43.9	0	0	---	0.00	29.957 
21:20	55.7	55.7	55.7	65	44.1	0	0	---	0.00	29.957 
21:25	55.7	55.7	55.7	65	44.1	0	0	---	0.00	29.957 
21:30	55.6	55.6	55.6	66	44.4	0	0	---	0.00	29.958 
21:35	55.6	55.6	55.6	66	44.4	0	0	---	0.00	29.958 
21:40	55.4	55.4	55.4	66	44.2	0	0	---	0.00	29.958 
21:45	55.6	55.6	55.6	64	43.6	0	1	90	0.00	29.956 
21:50	55.9	55.9	55.9	64	43.9	0	1	90	0.00	29.956 
21:55	56.3	56.3	56.3	63	43.9	0	1	90	0.00	29.956 
22:00	56.6	56.6	56.6	63	44.2	0	1	90	0.00	29.953 
22:05	56.9	56.9	56.9	62	44.0	0	1	90	0.00	29.953 
22:10	57.2	57.2	57.2	62	44.3	0	2	90	0.00	29.953 
22:15	57.3	57.3	57.3	61	44.0	1	3	90	0.00	29.946 
22:20	57.3	57.3	57.3	61	44.0	1	2	90	0.00	29.946 
22:25	57.5	57.5	57.5	61	44.2	1	2	90	0.00	29.946 
22:30	57.5	57.5	57.5	61	44.2	1	3	90	0.00	29.945 
22:35	57.5	57.5	57.5	62	44.6	1	2	90	0.00	29.945 
22:40	57.3	57.3	57.3	62	44.4	0	1	90	0.00	29.945 
22:45	57.3	57.3	57.3	62	44.4	0	1	90	0.00	29.948 
22:50	57.2	57.2	57.2	62	44.3	0	2	90	0.00	29.948 
22:55	57.2	57.2	57.2	62	44.3	1	2	90	0.00	29.948 
23:00	57.2	57.2	57.2	63	44.7	1	3	90	0.00	29.950 
23:05	57.0	57.0	57.0	63	44.5	1	2	90	0.00	29.950 
23:10	57.0	57.0	57.0	64	44.9	1	3	90	0.00	29.950 
23:15	57.0	57.0	57.0	64	44.9	0	2	90	0.00	29.946 
23:20	56.9	56.9	56.9	65	45.3	0	2	90	0.00	29.946 
23:25	56.7	56.7	56.7	65	45.1	0	2	90	0.00	29.946 
23:30	56.6	56.6	56.6	66	45.4	1	2	90	0.00	29.944 
23:35	56.5	56.5	56.5	66	45.3	0	1	90	0.00	29.944 
23:40	56.5	56.5	56.5	66	45.3	0	3	0	0.00	29.944 
23:45	56.3	56.3	56.3	67	45.5	0	2	0	0.00	29.946 
23:50	56.2	56.2	56.2	67	45.4	0	2	22	0.00	29.946 
23:55	56.0	56.0	56.0	67	45.2	1	2	68	0.00	29.946 

CoCoRaHS
IN-AL-39
A2 Web Hosting
Creative Commons License
GoDaddy
Look for:

loaded 2017-10-16 18:16:18 • last modified 2010-11-18 10:43:29
Privacy PolicyDisclaimer
• wx.awcolley.com is powered by PmWiki v.2002016 •
• all content (unless otherwise noted) © 2017 A W Colley